createdAt,value
2019-01-14T00:00:36.835Z,0
2019-01-14T00:01:17.429Z,0
2019-01-14T00:01:58.077Z,0
2019-01-14T00:02:38.679Z,0
2019-01-14T00:03:19.294Z,0
2019-01-14T00:03:59.899Z,0
2019-01-14T00:04:40.487Z,0
2019-01-14T00:05:21.095Z,0
2019-01-14T00:06:01.697Z,0
2019-01-14T00:06:42.317Z,0
2019-01-14T00:07:22.941Z,0
2019-01-14T00:08:03.544Z,0
2019-01-14T00:08:44.163Z,0
2019-01-14T00:09:31.023Z,0
2019-01-14T00:10:05.377Z,0
2019-01-14T00:10:46.012Z,0
2019-01-14T00:11:26.651Z,0
2019-01-14T00:12:07.267Z,0
2019-01-14T00:12:47.867Z,0
2019-01-14T00:13:28.501Z,0
2019-01-14T00:14:09.117Z,0
2019-01-14T00:14:49.727Z,0
2019-01-14T00:15:30.358Z,0
2019-01-14T00:16:10.947Z,0
2019-01-14T00:16:51.611Z,0
2019-01-14T00:17:32.225Z,0
2019-01-14T00:18:12.862Z,0
2019-01-14T00:18:53.493Z,0
2019-01-14T00:19:34.102Z,0
2019-01-14T00:20:14.715Z,0
2019-01-14T00:20:55.327Z,0
2019-01-14T00:21:35.949Z,0
2019-01-14T00:22:16.579Z,0
2019-01-14T00:22:57.182Z,0
2019-01-14T00:23:37.793Z,0
2019-01-14T00:24:18.407Z,0
2019-01-14T00:24:59.014Z,0
2019-01-14T00:25:39.641Z,0
2019-01-14T00:26:20.273Z,0
2019-01-14T00:27:00.884Z,0
2019-01-14T00:27:41.491Z,0
2019-01-14T00:28:22.090Z,0
2019-01-14T00:29:02.691Z,0
2019-01-14T00:29:43.301Z,0
2019-01-14T00:30:23.895Z,0
2019-01-14T00:31:04.528Z,0
2019-01-14T00:31:45.125Z,0
2019-01-14T00:32:25.725Z,0
2019-01-14T00:33:06.335Z,0
2019-01-14T00:33:46.931Z,0
2019-01-14T00:34:27.576Z,0
2019-01-14T00:35:08.197Z,0
2019-01-14T00:35:48.825Z,0
2019-01-14T00:36:29.443Z,0
2019-01-14T00:37:10.049Z,0
2019-01-14T00:37:50.675Z,0
2019-01-14T00:38:31.848Z,0
2019-01-14T00:39:11.897Z,0
2019-01-14T00:39:52.487Z,0
2019-01-14T00:40:33.111Z,0
2019-01-14T00:41:13.739Z,0
2019-01-14T00:41:54.343Z,0
2019-01-14T00:42:34.958Z,0
2019-01-14T00:43:15.571Z,0
2019-01-14T00:43:56.202Z,0
2019-01-14T00:44:36.813Z,0
2019-01-14T00:45:17.422Z,0
2019-01-14T00:45:58.030Z,0
2019-01-14T00:46:38.636Z,0
2019-01-14T00:47:19.259Z,0
2019-01-14T00:47:59.857Z,0
2019-01-14T00:48:40.455Z,0
2019-01-14T00:49:21.083Z,0
2019-01-14T00:50:01.694Z,0
2019-01-14T00:50:42.304Z,0
2019-01-14T00:51:22.913Z,0
2019-01-14T00:52:03.567Z,0
2019-01-14T00:52:44.191Z,0
2019-01-14T00:53:24.801Z,0
2019-01-14T00:54:05.408Z,0
2019-01-14T00:54:46.009Z,0
2019-01-14T00:55:26.613Z,0
2019-01-14T00:56:07.228Z,0
2019-01-14T00:56:47.841Z,0
2019-01-14T00:57:28.457Z,0
2019-01-14T00:58:09.063Z,0
2019-01-14T00:58:49.663Z,0
2019-01-14T00:59:30.275Z,0
2019-01-14T01:00:10.879Z,0
2019-01-14T01:00:51.488Z,0
2019-01-14T01:01:32.089Z,0
2019-01-14T01:02:12.713Z,0
2019-01-14T01:02:53.337Z,0
2019-01-14T01:03:33.945Z,0
2019-01-14T01:04:14.565Z,0
2019-01-14T01:04:55.195Z,0
2019-01-14T01:05:35.795Z,0
2019-01-14T01:06:16.397Z,0
2019-01-14T01:06:56.998Z,0
2019-01-14T01:07:37.603Z,0
2019-01-14T01:08:18.203Z,0
2019-01-14T01:08:58.809Z,0
2019-01-14T01:09:39.447Z,0
2019-01-14T01:10:20.061Z,0
2019-01-14T01:11:00.683Z,0
2019-01-14T01:11:41.308Z,0
2019-01-14T01:12:21.919Z,0
2019-01-14T01:13:02.520Z,0
2019-01-14T01:13:43.138Z,0
2019-01-14T01:14:23.753Z,0
2019-01-14T01:15:04.357Z,0
2019-01-14T01:15:44.979Z,0
2019-01-14T01:16:25.609Z,0
2019-01-14T01:17:06.241Z,0
2019-01-14T01:17:46.886Z,0
2019-01-14T01:18:27.503Z,0
2019-01-14T01:19:08.096Z,0
2019-01-14T01:19:48.712Z,0
2019-01-14T01:20:29.313Z,0
2019-01-14T01:21:09.929Z,0
2019-01-14T01:21:50.521Z,0
2019-01-14T01:22:31.156Z,0
2019-01-14T01:23:11.806Z,0
2019-01-14T01:23:52.443Z,0
2019-01-14T01:24:33.045Z,0
2019-01-14T01:25:13.671Z,0
2019-01-14T01:25:54.334Z,0
2019-01-14T01:26:34.941Z,0
2019-01-14T01:27:15.549Z,0
2019-01-14T01:27:56.152Z,0
2019-01-14T01:28:36.757Z,0
2019-01-14T01:29:17.361Z,0
2019-01-14T01:29:57.961Z,0
2019-01-14T01:30:38.570Z,0
2019-01-14T01:31:19.162Z,0
2019-01-14T01:31:59.801Z,0
2019-01-14T01:32:40.420Z,0
2019-01-14T01:33:21.026Z,0
2019-01-14T01:34:01.638Z,0
2019-01-14T01:34:42.241Z,0
2019-01-14T01:35:22.849Z,0
2019-01-14T01:36:03.456Z,0
2019-01-14T01:36:44.088Z,0
2019-01-14T01:37:24.719Z,0
2019-01-14T01:38:05.335Z,0
2019-01-14T01:38:45.973Z,0
2019-01-14T01:39:26.622Z,0
2019-01-14T01:40:07.228Z,0
2019-01-14T01:40:47.834Z,0
2019-01-14T01:41:28.445Z,0
2019-01-14T01:42:09.047Z,0
2019-01-14T01:42:49.672Z,0
2019-01-14T01:43:30.272Z,0
2019-01-14T01:44:10.920Z,0
2019-01-14T01:44:51.525Z,0
2019-01-14T01:45:32.145Z,0
2019-01-14T01:46:12.789Z,0
2019-01-14T01:46:53.439Z,0
2019-01-14T01:47:34.072Z,0
2019-01-14T01:48:14.666Z,0
2019-01-14T01:48:55.279Z,0
2019-01-14T01:49:35.877Z,0
2019-01-14T01:50:16.490Z,0
2019-01-14T01:50:57.136Z,0
2019-01-14T01:51:37.765Z,0
2019-01-14T01:52:18.395Z,0
2019-01-14T01:52:59.021Z,0
2019-01-14T01:53:39.629Z,0
2019-01-14T01:54:20.243Z,0
2019-01-14T01:55:00.856Z,0
2019-01-14T01:55:41.514Z,0
2019-01-14T01:56:22.117Z,0
2019-01-14T01:57:02.741Z,0
2019-01-14T01:57:43.351Z,0
2019-01-14T01:58:23.954Z,0
2019-01-14T01:59:04.571Z,0
2019-01-14T01:59:45.165Z,0
2019-01-14T02:00:25.783Z,0
2019-01-14T02:01:06.414Z,0
2019-01-14T02:01:47.026Z,0
2019-01-14T02:02:27.630Z,0
2019-01-14T02:03:08.236Z,0
2019-01-14T02:03:48.821Z,0
2019-01-14T02:04:29.432Z,0
2019-01-14T02:05:10.037Z,0
2019-01-14T02:05:50.634Z,0
2019-01-14T02:06:31.226Z,0
2019-01-14T02:07:11.836Z,0
2019-01-14T02:07:52.446Z,0
2019-01-14T02:08:33.043Z,0
2019-01-14T02:09:13.631Z,0
2019-01-14T02:09:54.236Z,0
2019-01-14T02:10:34.845Z,0
2019-01-14T02:11:15.445Z,0
2019-01-14T02:11:56.056Z,0
2019-01-14T02:12:36.720Z,0
2019-01-14T02:13:17.351Z,0
2019-01-14T02:13:58.842Z,0
2019-01-14T02:14:39.433Z,0
2019-01-14T02:15:20.039Z,0
2019-01-14T02:16:00.638Z,0
2019-01-14T02:16:41.235Z,0
2019-01-14T02:17:21.845Z,0
2019-01-14T02:18:02.452Z,0
2019-01-14T02:18:43.059Z,0
2019-01-14T02:19:23.669Z,0
2019-01-14T02:20:04.280Z,0
2019-01-14T02:20:44.884Z,0
2019-01-14T02:21:25.498Z,0
2019-01-14T02:22:06.097Z,0
2019-01-14T02:22:46.703Z,0
2019-01-14T02:23:27.304Z,0
2019-01-14T02:24:07.915Z,0
2019-01-14T02:24:48.518Z,0
2019-01-14T02:25:29.150Z,0
2019-01-14T02:26:09.774Z,0
2019-01-14T02:26:50.374Z,0
2019-01-14T02:27:30.977Z,0
2019-01-14T02:28:11.583Z,0
2019-01-14T02:28:52.178Z,0
2019-01-14T02:29:32.827Z,0
2019-01-14T02:30:13.430Z,0
2019-01-14T02:30:54.037Z,0
2019-01-14T02:31:34.615Z,0
2019-01-14T02:32:15.232Z,0
2019-01-14T02:32:55.842Z,0
2019-01-14T02:33:36.443Z,0
2019-01-14T02:34:17.060Z,0
2019-01-14T02:34:57.659Z,0
2019-01-14T02:35:38.275Z,0
2019-01-14T02:36:18.887Z,0
2019-01-14T02:36:59.495Z,0
2019-01-14T02:37:40.097Z,0
2019-01-14T02:38:20.752Z,0
2019-01-14T02:39:01.410Z,0
2019-01-14T02:39:42.005Z,0
2019-01-14T02:40:22.606Z,0
2019-01-14T02:41:03.211Z,0
2019-01-14T02:41:43.805Z,0
2019-01-14T02:42:24.409Z,0
2019-01-14T02:43:05.023Z,0
2019-01-14T02:43:45.642Z,0
2019-01-14T02:44:26.284Z,0
2019-01-14T02:45:06.895Z,0
2019-01-14T02:45:47.548Z,0
2019-01-14T02:46:28.146Z,0
2019-01-14T02:47:08.756Z,0
2019-01-14T02:47:49.375Z,0
2019-01-14T02:48:29.980Z,0
2019-01-14T02:49:10.589Z,0
2019-01-14T02:49:51.202Z,0
2019-01-14T02:50:31.821Z,0
2019-01-14T02:51:12.486Z,0
2019-01-14T02:51:53.092Z,0
2019-01-14T02:52:39.432Z,0
2019-01-14T02:53:14.341Z,0
2019-01-14T02:53:54.954Z,0
2019-01-14T02:54:35.570Z,0
2019-01-14T02:55:16.182Z,0
2019-01-14T02:55:56.778Z,0
2019-01-14T02:56:37.387Z,0
2019-01-14T02:57:18.012Z,0
2019-01-14T02:57:58.632Z,0
2019-01-14T02:58:39.256Z,0
2019-01-14T02:59:19.854Z,0
2019-01-14T03:00:00.451Z,0
2019-01-14T03:00:41.072Z,0
2019-01-14T03:01:21.694Z,0
2019-01-14T03:02:02.295Z,0
2019-01-14T03:02:42.903Z,0
2019-01-14T03:03:23.514Z,0
2019-01-14T03:04:04.123Z,0
2019-01-14T03:04:44.744Z,0
2019-01-14T03:05:25.347Z,0
2019-01-14T03:06:05.944Z,0
2019-01-14T03:06:46.556Z,0
2019-01-14T03:07:27.154Z,0
2019-01-14T03:08:07.752Z,0
2019-01-14T03:08:48.369Z,0
2019-01-14T03:09:28.969Z,0
2019-01-14T03:10:09.558Z,0
2019-01-14T03:10:50.168Z,0
2019-01-14T03:11:30.776Z,0
2019-01-14T03:12:11.365Z,0
2019-01-14T03:12:51.978Z,0
2019-01-14T03:13:32.615Z,0
2019-01-14T03:14:13.243Z,0
2019-01-14T03:14:53.868Z,0
2019-01-14T03:15:34.486Z,0
2019-01-14T03:16:15.072Z,0
2019-01-14T03:16:55.682Z,0
2019-01-14T03:17:36.285Z,0
2019-01-14T03:18:16.897Z,0
2019-01-14T03:18:57.504Z,0
2019-01-14T03:19:38.113Z,0
2019-01-14T03:20:18.712Z,0
2019-01-14T03:20:59.342Z,0
2019-01-14T03:21:39.944Z,0
2019-01-14T03:22:20.548Z,0
2019-01-14T03:23:01.146Z,0
2019-01-14T03:23:41.744Z,0
2019-01-14T03:24:22.364Z,0
2019-01-14T03:25:02.974Z,0
2019-01-14T03:25:43.596Z,0
2019-01-14T03:26:24.228Z,0
2019-01-14T03:27:04.831Z,0
2019-01-14T03:27:45.432Z,0
2019-01-14T03:28:26.030Z,0
2019-01-14T03:29:06.668Z,0
2019-01-14T03:29:47.280Z,0
2019-01-14T03:30:27.949Z,0
2019-01-14T03:31:08.562Z,0
2019-01-14T03:31:49.180Z,0
2019-01-14T03:32:29.792Z,0
2019-01-14T03:33:10.406Z,0
2019-01-14T03:33:51.008Z,0
2019-01-14T03:34:31.618Z,0
2019-01-14T03:35:12.242Z,0
2019-01-14T03:35:52.841Z,0
2019-01-14T03:36:33.443Z,0
2019-01-14T03:37:14.054Z,0
2019-01-14T03:37:54.639Z,0
2019-01-14T03:38:35.241Z,0
2019-01-14T03:39:15.854Z,0
2019-01-14T03:39:56.458Z,0
2019-01-14T03:40:37.072Z,0
2019-01-14T03:41:17.736Z,0
2019-01-14T03:41:58.346Z,0
2019-01-14T03:42:38.946Z,0
2019-01-14T03:43:19.550Z,0
2019-01-14T03:44:00.162Z,0
2019-01-14T03:44:40.814Z,0
2019-01-14T03:45:21.424Z,0
2019-01-14T03:46:02.020Z,0
2019-01-14T03:46:42.630Z,0
2019-01-14T03:47:23.246Z,0
2019-01-14T03:48:03.862Z,0
2019-01-14T03:48:44.506Z,0
2019-01-14T03:49:25.110Z,0
2019-01-14T03:50:05.739Z,0
2019-01-14T03:50:46.350Z,0
2019-01-14T03:51:26.962Z,0
2019-01-14T03:52:07.570Z,0
2019-01-14T03:52:48.176Z,0
2019-01-14T03:53:28.770Z,0
2019-01-14T03:54:09.380Z,0
2019-01-14T03:54:49.996Z,0
2019-01-14T03:55:30.604Z,0
2019-01-14T03:56:11.204Z,0
2019-01-14T03:56:51.820Z,0
2019-01-14T03:57:32.412Z,0
2019-01-14T03:58:13.022Z,0
2019-01-14T03:58:53.630Z,0
2019-01-14T03:59:34.226Z,0
2019-01-14T04:00:14.830Z,0
2019-01-14T04:00:55.452Z,0
2019-01-14T04:01:36.058Z,0
2019-01-14T04:02:16.657Z,0
2019-01-14T04:02:57.276Z,0
2019-01-14T04:03:37.874Z,0
2019-01-14T04:04:18.464Z,0
2019-01-14T04:04:59.076Z,0
2019-01-14T04:05:39.728Z,0
2019-01-14T04:06:20.330Z,0
2019-01-14T04:07:00.936Z,0
2019-01-14T04:07:41.541Z,0
2019-01-14T04:08:22.146Z,0
2019-01-14T04:09:02.745Z,0
2019-01-14T04:09:43.358Z,0
2019-01-14T04:10:23.978Z,0
2019-01-14T04:11:04.584Z,0
2019-01-14T04:11:45.208Z,0
2019-01-14T04:12:25.814Z,0
2019-01-14T04:13:06.420Z,0
2019-01-14T04:13:47.060Z,0
2019-01-14T04:14:27.658Z,0
2019-01-14T04:15:08.266Z,0
2019-01-14T04:15:48.894Z,0
2019-01-14T04:16:29.511Z,0
2019-01-14T04:17:10.153Z,0
2019-01-14T04:17:50.758Z,0
2019-01-14T04:18:31.388Z,0
2019-01-14T04:19:11.998Z,4
2019-01-14T04:19:52.622Z,4
2019-01-14T04:20:33.237Z,4
2019-01-14T04:21:13.836Z,4
2019-01-14T04:21:54.483Z,4
2019-01-14T04:22:35.125Z,4
2019-01-14T04:23:15.772Z,4
2019-01-14T04:23:56.406Z,4
2019-01-14T04:24:37.028Z,4
2019-01-14T04:25:17.648Z,4
2019-01-14T04:25:58.268Z,4
2019-01-14T04:26:38.862Z,4
2019-01-14T04:27:19.512Z,4
2019-01-14T04:28:00.130Z,4
2019-01-14T04:28:40.758Z,4
2019-01-14T04:29:21.399Z,4
2019-01-14T04:30:02.059Z,4
2019-01-14T04:30:42.676Z,4
2019-01-14T04:31:23.284Z,4
2019-01-14T04:32:03.908Z,4
2019-01-14T04:32:44.508Z,4
2019-01-14T04:33:25.132Z,4
2019-01-14T04:34:05.748Z,4
2019-01-14T04:34:46.356Z,4
2019-01-14T04:35:26.974Z,4
2019-01-14T04:36:07.583Z,4
2019-01-14T04:36:48.198Z,4
2019-01-14T04:37:28.799Z,4
2019-01-14T04:38:09.409Z,4
2019-01-14T04:38:50.041Z,4
2019-01-14T04:39:30.630Z,4
2019-01-14T04:40:11.275Z,4
2019-01-14T04:40:51.892Z,4
2019-01-14T04:41:32.512Z,4
2019-01-14T04:42:13.122Z,4
2019-01-14T04:42:53.732Z,4
2019-01-14T04:43:34.346Z,4
2019-01-14T04:44:14.956Z,4
2019-01-14T04:44:55.590Z,4
2019-01-14T04:45:36.258Z,4
2019-01-14T04:46:16.869Z,4
2019-01-14T04:46:57.489Z,4
2019-01-14T04:47:38.088Z,4
2019-01-14T04:48:18.719Z,4
2019-01-14T04:48:59.324Z,4
2019-01-14T04:49:39.928Z,4
2019-01-14T04:50:20.545Z,4
2019-01-14T04:51:01.190Z,4
2019-01-14T04:51:41.790Z,4
2019-01-14T04:52:22.412Z,4
2019-01-14T04:53:03.032Z,4
2019-01-14T04:53:43.636Z,4
2019-01-14T04:54:24.253Z,4
2019-01-14T04:55:04.874Z,4
2019-01-14T04:55:45.470Z,4
2019-01-14T04:56:26.085Z,4
2019-01-14T04:57:06.688Z,4
2019-01-14T04:57:47.356Z,4
2019-01-14T04:58:27.952Z,4
2019-01-14T04:59:08.584Z,4
2019-01-14T04:59:49.212Z,4
2019-01-14T05:00:29.820Z,4
2019-01-14T05:01:10.423Z,4
2019-01-14T05:01:51.054Z,4
2019-01-14T05:02:31.669Z,4
2019-01-14T05:03:12.313Z,4
2019-01-14T05:03:52.914Z,4
2019-01-14T05:04:33.533Z,4
2019-01-14T05:05:14.152Z,4
2019-01-14T05:05:54.788Z,4
2019-01-14T05:06:35.402Z,4
2019-01-14T05:07:16.001Z,4
2019-01-14T05:07:56.607Z,4
2019-01-14T05:08:37.244Z,4
2019-01-14T05:09:17.856Z,4
2019-01-14T05:09:58.512Z,4
2019-01-14T05:10:39.144Z,4
2019-01-14T05:11:19.752Z,4
2019-01-14T05:12:00.366Z,4
2019-01-14T05:12:41.004Z,4
2019-01-14T05:13:21.608Z,4
2019-01-14T05:14:02.224Z,4
2019-01-14T05:14:42.848Z,4
2019-01-14T05:15:23.520Z,4
2019-01-14T05:16:04.106Z,4
2019-01-14T05:16:44.717Z,4
2019-01-14T05:17:25.322Z,4
2019-01-14T05:18:05.943Z,4
2019-01-14T05:18:46.549Z,4
2019-01-14T05:19:27.164Z,4
2019-01-14T05:20:07.772Z,4
2019-01-14T05:20:48.378Z,4
2019-01-14T05:21:28.996Z,4
2019-01-14T05:22:09.606Z,4
2019-01-14T05:22:50.248Z,4
2019-01-14T05:23:30.877Z,4
2019-01-14T05:24:11.496Z,4
2019-01-14T05:24:52.094Z,4
2019-01-14T05:25:32.718Z,4
2019-01-14T05:26:13.356Z,4
2019-01-14T05:26:53.978Z,4
2019-01-14T05:27:34.566Z,4
2019-01-14T05:28:15.183Z,4
2019-01-14T05:28:55.800Z,4
2019-01-14T05:29:36.464Z,4
2019-01-14T05:30:17.089Z,4
2019-01-14T05:30:57.692Z,4
2019-01-14T05:31:38.318Z,4
2019-01-14T05:32:18.936Z,4
2019-01-14T05:32:59.533Z,4
2019-01-14T05:33:40.144Z,4
2019-01-14T05:34:20.741Z,4
2019-01-14T05:35:01.340Z,4
2019-01-14T05:35:41.966Z,4
2019-01-14T05:36:22.570Z,4
2019-01-14T05:37:03.184Z,4
2019-01-14T05:37:43.814Z,4
2019-01-14T05:38:24.449Z,4
2019-01-14T05:39:05.060Z,4
2019-01-14T05:39:45.701Z,4
2019-01-14T05:40:26.296Z,4
2019-01-14T05:41:06.914Z,4
2019-01-14T05:41:47.536Z,4
2019-01-14T05:42:28.155Z,4
2019-01-14T05:43:08.784Z,4
2019-01-14T05:43:49.384Z,4
2019-01-14T05:44:30.007Z,4
2019-01-14T05:45:10.613Z,4
2019-01-14T05:45:51.214Z,4
2019-01-14T05:46:31.809Z,4
2019-01-14T05:47:12.407Z,4
2019-01-14T05:47:53.014Z,4
2019-01-14T05:48:33.636Z,4
2019-01-14T05:49:14.256Z,4
2019-01-14T05:49:54.860Z,4
2019-01-14T05:50:35.457Z,4
2019-01-14T05:51:16.066Z,4
2019-01-14T05:51:56.660Z,4
2019-01-14T05:52:37.253Z,4
2019-01-14T05:53:17.870Z,4
2019-01-14T05:53:58.534Z,4
2019-01-14T05:54:39.170Z,4
2019-01-14T05:55:19.784Z,4
2019-01-14T05:56:00.397Z,4
2019-01-14T05:56:40.990Z,4
2019-01-14T05:57:21.595Z,4
2019-01-14T05:58:02.559Z,4
2019-01-14T05:58:42.996Z,4
2019-01-14T05:59:23.605Z,4
2019-01-14T06:00:04.218Z,4
2019-01-14T06:00:44.812Z,4
2019-01-14T06:01:25.442Z,4
2019-01-14T06:02:06.050Z,4
2019-01-14T06:02:46.654Z,4
2019-01-14T06:03:27.257Z,4
2019-01-14T06:04:07.856Z,4
2019-01-14T06:04:48.454Z,4
2019-01-14T06:05:29.068Z,4
2019-01-14T06:06:09.684Z,4
2019-01-14T06:06:50.288Z,4
2019-01-14T06:07:30.890Z,4
2019-01-14T06:08:11.510Z,4
2019-01-14T06:08:52.121Z,4
2019-01-14T06:09:32.748Z,4
2019-01-14T06:10:13.358Z,4
2019-01-14T06:10:53.984Z,4
2019-01-14T06:11:34.593Z,4
2019-01-14T06:12:15.223Z,4
2019-01-14T06:12:55.862Z,4
2019-01-14T06:13:36.456Z,4
2019-01-14T06:14:17.054Z,4
2019-01-14T06:14:57.654Z,4
2019-01-14T06:15:38.256Z,4
2019-01-14T06:16:18.868Z,4
2019-01-14T06:16:59.488Z,4
2019-01-14T06:17:40.102Z,4
2019-01-14T06:18:20.691Z,4
2019-01-14T06:19:01.353Z,4
2019-01-14T06:19:41.946Z,4
2019-01-14T06:20:22.542Z,4
2019-01-14T06:21:03.142Z,4
2019-01-14T06:21:43.782Z,4
2019-01-14T06:22:24.406Z,4
2019-01-14T06:23:05.004Z,4
2019-01-14T06:23:45.618Z,4
2019-01-14T06:24:26.217Z,4
2019-01-14T06:25:06.866Z,4
2019-01-14T06:25:47.467Z,4
2019-01-14T06:26:28.084Z,4
2019-01-14T06:27:08.713Z,4
2019-01-14T06:27:49.325Z,4
2019-01-14T06:28:29.934Z,4
2019-01-14T06:29:10.564Z,4
2019-01-14T06:29:51.186Z,4
2019-01-14T06:30:31.794Z,4
2019-01-14T06:31:12.396Z,4
2019-01-14T06:31:52.999Z,4
2019-01-14T06:32:33.663Z,4
2019-01-14T06:33:14.291Z,4
2019-01-14T06:33:54.910Z,4
2019-01-14T06:34:35.520Z,4
2019-01-14T06:35:16.134Z,4
2019-01-14T06:35:56.739Z,4
2019-01-14T06:36:37.351Z,4
2019-01-14T06:37:17.960Z,4
2019-01-14T06:37:58.568Z,4
2019-01-14T06:38:39.186Z,4
2019-01-14T06:39:19.782Z,4
2019-01-14T06:40:00.390Z,4
2019-01-14T06:40:41.002Z,4
2019-01-14T06:41:21.616Z,4
2019-01-14T06:42:02.354Z,4
2019-01-14T06:42:42.959Z,4
2019-01-14T06:43:23.574Z,4
2019-01-14T06:44:04.187Z,4
2019-01-14T06:44:44.786Z,4
2019-01-14T06:45:25.388Z,4
2019-01-14T06:46:05.995Z,4
2019-01-14T06:46:46.612Z,4
2019-01-14T06:47:27.196Z,4
2019-01-14T06:48:07.803Z,4
2019-01-14T06:48:48.418Z,4
2019-01-14T06:49:29.042Z,4
2019-01-14T06:50:09.660Z,4
2019-01-14T06:50:50.259Z,4
2019-01-14T06:51:30.878Z,4
2019-01-14T06:52:11.510Z,8
2019-01-14T06:52:52.123Z,8
2019-01-14T06:53:32.784Z,8
2019-01-14T06:54:13.389Z,8
2019-01-14T06:54:53.998Z,8
2019-01-14T06:55:34.596Z,8
2019-01-14T06:56:15.198Z,8
2019-01-14T06:56:55.815Z,4
2019-01-14T06:57:36.446Z,4
2019-01-14T06:58:17.059Z,4
2019-01-14T06:58:57.663Z,4
2019-01-14T06:59:38.337Z,8
2019-01-14T07:00:18.884Z,8
2019-01-14T07:00:59.491Z,8
2019-01-14T07:01:40.140Z,4
2019-01-14T07:02:20.761Z,8
2019-01-14T07:03:01.398Z,8
2019-01-14T07:03:42.009Z,8
2019-01-14T07:04:22.645Z,8
2019-01-14T07:05:03.261Z,8
2019-01-14T07:05:43.902Z,8
2019-01-14T07:06:24.518Z,12
2019-01-14T07:07:05.162Z,8
2019-01-14T07:07:45.764Z,12
2019-01-14T07:08:26.378Z,12
2019-01-14T07:09:07.021Z,16
2019-01-14T07:09:47.649Z,12
2019-01-14T07:10:28.252Z,12
2019-01-14T07:11:08.881Z,16
2019-01-14T07:11:49.480Z,16
2019-01-14T07:12:30.136Z,20
2019-01-14T07:13:10.739Z,20
2019-01-14T07:13:51.340Z,16
2019-01-14T07:14:31.945Z,20
2019-01-14T07:15:12.545Z,20
2019-01-14T07:15:53.146Z,24
2019-01-14T07:16:33.746Z,24
2019-01-14T07:17:14.359Z,28
2019-01-14T07:17:54.960Z,28
2019-01-14T07:18:35.584Z,32
2019-01-14T07:19:16.198Z,32
2019-01-14T07:19:56.803Z,32
2019-01-14T07:20:37.422Z,36
2019-01-14T07:21:18.023Z,36
2019-01-14T07:21:58.634Z,40
2019-01-14T07:22:39.262Z,40
2019-01-14T07:23:19.867Z,40
2019-01-14T07:24:00.470Z,44
2019-01-14T07:24:41.079Z,44
2019-01-14T07:25:21.683Z,48
2019-01-14T07:26:02.291Z,52
2019-01-14T07:26:42.895Z,52
2019-01-14T07:27:23.619Z,56
2019-01-14T07:28:04.198Z,56
2019-01-14T07:28:44.794Z,56
2019-01-14T07:29:25.419Z,60
2019-01-14T07:30:06.074Z,64
2019-01-14T07:30:46.674Z,64
2019-01-14T07:31:27.284Z,64
2019-01-14T07:32:07.897Z,68
2019-01-14T07:32:48.510Z,72
2019-01-14T07:33:29.130Z,76
2019-01-14T07:34:09.746Z,76
2019-01-14T07:34:50.380Z,76
2019-01-14T07:35:30.980Z,84
2019-01-14T07:36:11.602Z,84
2019-01-14T07:36:52.219Z,88
2019-01-14T07:37:32.824Z,88
2019-01-14T07:38:13.449Z,88
2019-01-14T07:38:54.057Z,92
2019-01-14T07:39:34.667Z,92
2019-01-14T07:40:15.277Z,96
2019-01-14T07:40:55.889Z,100
2019-01-14T07:41:36.486Z,104
2019-01-14T07:42:17.092Z,108
2019-01-14T07:42:57.695Z,108
2019-01-14T07:43:38.316Z,112
2019-01-14T07:44:18.942Z,116
2019-01-14T07:44:59.552Z,120
2019-01-14T07:45:40.165Z,120
2019-01-14T07:46:20.766Z,124
2019-01-14T07:47:01.372Z,128
2019-01-14T07:47:41.993Z,128
2019-01-14T07:48:22.615Z,132
2019-01-14T07:49:03.214Z,132
2019-01-14T07:49:43.810Z,136
2019-01-14T07:50:24.417Z,140
2019-01-14T07:51:05.017Z,140
2019-01-14T07:51:45.621Z,140
2019-01-14T07:52:26.229Z,144
2019-01-14T07:53:06.843Z,148
2019-01-14T07:53:47.456Z,148
2019-01-14T07:54:28.068Z,152
2019-01-14T07:55:08.683Z,152
2019-01-14T07:55:49.355Z,156
2019-01-14T07:56:29.967Z,156
2019-01-14T07:57:10.603Z,160
2019-01-14T07:57:51.225Z,160
2019-01-14T07:58:31.863Z,164
2019-01-14T07:59:12.496Z,164
2019-01-14T07:59:53.119Z,164
2019-01-14T08:00:33.792Z,168
2019-01-14T08:01:14.340Z,168
2019-01-14T08:01:54.959Z,168
2019-01-14T08:02:35.597Z,172
2019-01-14T08:03:16.214Z,172
2019-01-14T08:03:56.810Z,172
2019-01-14T08:04:37.425Z,176
2019-01-14T08:05:18.033Z,180
2019-01-14T08:05:58.668Z,180
2019-01-14T08:06:39.283Z,184
2019-01-14T08:07:19.975Z,184
2019-01-14T08:08:00.586Z,188
2019-01-14T08:08:41.219Z,188
2019-01-14T08:09:21.985Z,188
2019-01-14T08:10:02.593Z,192
2019-01-14T08:10:43.203Z,192
2019-01-14T08:11:23.832Z,192
2019-01-14T08:12:04.452Z,192
2019-01-14T08:12:45.111Z,200
2019-01-14T08:13:25.730Z,200
2019-01-14T08:14:06.341Z,204
2019-01-14T08:14:46.943Z,204
2019-01-14T08:15:27.553Z,204
2019-01-14T08:16:08.160Z,208
2019-01-14T08:16:48.777Z,208
2019-01-14T08:17:29.395Z,208
2019-01-14T08:18:09.989Z,212
2019-01-14T08:18:50.601Z,216
2019-01-14T08:19:31.213Z,220
2019-01-14T08:20:11.847Z,216
2019-01-14T08:20:52.457Z,220
2019-01-14T08:21:33.066Z,220
2019-01-14T08:22:13.679Z,224
2019-01-14T08:22:54.311Z,224
2019-01-14T08:23:34.920Z,224
2019-01-14T08:24:15.514Z,228
2019-01-14T08:24:56.117Z,232
2019-01-14T08:25:37.510Z,232
2019-01-14T08:26:17.354Z,232
2019-01-14T08:26:57.977Z,236
2019-01-14T08:27:38.602Z,236
2019-01-14T08:28:19.206Z,240
2019-01-14T08:28:59.829Z,240
2019-01-14T08:29:40.439Z,240
2019-01-14T08:30:21.050Z,244
2019-01-14T08:31:01.713Z,244
2019-01-14T08:31:42.307Z,248
2019-01-14T08:32:22.927Z,248
2019-01-14T08:33:03.549Z,252
2019-01-14T08:33:44.168Z,256
2019-01-14T08:34:24.817Z,256
2019-01-14T08:35:05.499Z,256
2019-01-14T08:35:46.084Z,260
2019-01-14T08:36:26.701Z,260
2019-01-14T08:37:08.442Z,260
2019-01-14T08:37:47.873Z,268
2019-01-14T08:38:28.546Z,268
2019-01-14T08:39:09.159Z,272
2019-01-14T08:39:49.768Z,272
2019-01-14T08:40:30.373Z,272
2019-01-14T08:41:10.981Z,276
2019-01-14T08:41:51.604Z,280
2019-01-14T08:42:32.231Z,284
2019-01-14T08:43:12.847Z,284
2019-01-14T08:43:53.458Z,288
2019-01-14T08:44:34.066Z,288
2019-01-14T08:45:14.667Z,292
2019-01-14T08:45:55.354Z,296
2019-01-14T08:46:35.969Z,296
2019-01-14T08:47:16.593Z,296
2019-01-14T08:47:57.225Z,300
2019-01-14T08:48:37.842Z,300
2019-01-14T08:49:18.489Z,304
2019-01-14T08:49:59.093Z,304
2019-01-14T08:50:39.733Z,308
2019-01-14T08:51:20.338Z,312
2019-01-14T08:52:00.949Z,312
2019-01-14T08:52:41.582Z,312
2019-01-14T08:53:22.194Z,316
2019-01-14T08:54:02.851Z,316
2019-01-14T08:54:43.464Z,320
2019-01-14T08:55:24.059Z,320
2019-01-14T08:56:04.669Z,324
2019-01-14T08:56:45.313Z,324
2019-01-14T08:57:25.943Z,328
2019-01-14T08:58:06.567Z,328
2019-01-14T08:58:47.213Z,328
2019-01-14T08:59:27.829Z,336
2019-01-14T09:00:08.437Z,332
2019-01-14T09:00:49.039Z,336
2019-01-14T09:01:29.651Z,340
2019-01-14T09:02:10.255Z,340
2019-01-14T09:02:50.859Z,340
2019-01-14T09:03:31.467Z,344
2019-01-14T09:04:12.084Z,348
2019-01-14T09:04:52.701Z,348
2019-01-14T09:05:33.309Z,348
2019-01-14T09:06:13.935Z,352
2019-01-14T09:06:54.545Z,356
2019-01-14T09:07:35.154Z,356
2019-01-14T09:08:15.748Z,356
2019-01-14T09:08:56.387Z,360
2019-01-14T09:09:37.006Z,360
2019-01-14T09:10:17.633Z,364
2019-01-14T09:10:58.267Z,364
2019-01-14T09:11:38.909Z,368
2019-01-14T09:12:19.525Z,368
2019-01-14T09:13:00.144Z,372
2019-01-14T09:13:40.767Z,372
2019-01-14T09:14:21.411Z,376
2019-01-14T09:15:02.027Z,376
2019-01-14T09:15:42.640Z,376
2019-01-14T09:16:23.252Z,384
2019-01-14T09:17:03.858Z,384
2019-01-14T09:17:44.472Z,388
2019-01-14T09:18:25.079Z,388
2019-01-14T09:19:05.697Z,392
2019-01-14T09:19:46.321Z,396
2019-01-14T09:20:26.947Z,396
2019-01-14T09:21:07.565Z,400
2019-01-14T09:21:48.235Z,400
2019-01-14T09:22:28.861Z,404
2019-01-14T09:23:09.479Z,408
2019-01-14T09:23:50.084Z,408
2019-01-14T09:24:30.699Z,408
2019-01-14T09:25:11.321Z,412
2019-01-14T09:25:53.833Z,412
2019-01-14T09:26:32.527Z,412
2019-01-14T09:27:13.120Z,416
2019-01-14T09:27:53.724Z,416
2019-01-14T09:28:34.433Z,424
2019-01-14T09:29:14.953Z,420
2019-01-14T09:29:55.593Z,420
2019-01-14T09:30:36.199Z,424
2019-01-14T09:31:16.803Z,428
2019-01-14T09:31:57.419Z,428
2019-01-14T09:32:38.067Z,432
2019-01-14T09:33:18.681Z,436
2019-01-14T09:33:59.289Z,436
2019-01-14T09:34:39.895Z,436
2019-01-14T09:35:20.533Z,444
2019-01-14T09:36:01.135Z,444
2019-01-14T09:36:41.757Z,448
2019-01-14T09:37:22.357Z,448
2019-01-14T09:38:02.953Z,452
2019-01-14T09:38:43.551Z,452
2019-01-14T09:39:24.169Z,456
2019-01-14T09:40:04.801Z,460
2019-01-14T09:40:45.425Z,464
2019-01-14T09:41:26.029Z,464
2019-01-14T09:42:06.643Z,464
2019-01-14T09:42:47.268Z,464
2019-01-14T09:43:27.891Z,468
2019-01-14T09:44:08.505Z,468
2019-01-14T09:44:49.112Z,472
2019-01-14T09:45:29.739Z,472
2019-01-14T09:46:10.343Z,472
2019-01-14T09:46:50.969Z,476
2019-01-14T09:47:31.584Z,476
2019-01-14T09:48:12.189Z,480
2019-01-14T09:48:52.850Z,480
2019-01-14T09:49:33.421Z,484
2019-01-14T09:50:14.017Z,484